sensor_id;sensor_type;location;lat;lon;timestamp;P1;durP1;ratioP1;P2;durP2;ratioP2
10711;SDS011;5407;51.234;6.804;2022-08-19T00:01:34;11.18;;;8.82;;
10711;SDS011;5407;51.234;6.804;2022-08-19T00:04:04;15.93;;;11.85;;
10711;SDS011;5407;51.234;6.804;2022-08-19T00:06:33;23.65;;;15.65;;
10711;SDS011;5407;51.234;6.804;2022-08-19T00:09:02;17.58;;;13.27;;
10711;SDS011;5407;51.234;6.804;2022-08-19T00:11:30;19.15;;;14.93;;
10711;SDS011;5407;51.234;6.804;2022-08-19T00:13:59;15.30;;;10.00;;
10711;SDS011;5407;51.234;6.804;2022-08-19T00:16:26;17.83;;;12.95;;
10711;SDS011;5407;51.234;6.804;2022-08-19T00:18:52;17.20;;;12.27;;
10711;SDS011;5407;51.234;6.804;2022-08-19T00:21:20;16.02;;;11.70;;
10711;SDS011;5407;51.234;6.804;2022-08-19T00:23:47;15.52;;;11.57;;
10711;SDS011;5407;51.234;6.804;2022-08-19T00:26:14;11.07;;;8.50;;
10711;SDS011;5407;51.234;6.804;2022-08-19T00:28:41;13.32;;;10.40;;
10711;SDS011;5407;51.234;6.804;2022-08-19T00:31:09;11.57;;;8.82;;
10711;SDS011;5407;51.234;6.804;2022-08-19T00:33:36;14.15;;;9.88;;
10711;SDS011;5407;51.234;6.804;2022-08-19T00:36:04;14.27;;;10.70;;
10711;SDS011;5407;51.234;6.804;2022-08-19T00:38:34;10.95;;;8.82;;
10711;SDS011;5407;51.234;6.804;2022-08-19T00:41:01;9.15;;;8.25;;
10711;SDS011;5407;51.234;6.804;2022-08-19T00:43:28;8.32;;;7.30;;
10711;SDS011;5407;51.234;6.804;2022-08-19T00:45:55;11.80;;;8.52;;
10711;SDS011;5407;51.234;6.804;2022-08-19T00:48:23;15.13;;;10.73;;
10711;SDS011;5407;51.234;6.804;2022-08-19T00:50:50;10.60;;;6.88;;
10711;SDS011;5407;51.234;6.804;2022-08-19T00:53:20;8.23;;;6.47;;
10711;SDS011;5407;51.234;6.804;2022-08-19T00:55:50;8.45;;;6.53;;
10711;SDS011;5407;51.234;6.804;2022-08-19T00:58:19;7.35;;;6.50;;
10711;SDS011;5407;51.234;6.804;2022-08-19T01:00:48;9.38;;;6.68;;
10711;SDS011;5407;51.234;6.804;2022-08-19T01:03:16;9.27;;;7.53;;
10711;SDS011;5407;51.234;6.804;2022-08-19T01:05:46;9.05;;;5.80;;
10711;SDS011;5407;51.234;6.804;2022-08-19T01:08:16;6.10;;;5.50;;
10711;SDS011;5407;51.234;6.804;2022-08-19T01:10:44;6.53;;;5.75;;
10711;SDS011;5407;51.234;6.804;2022-08-19T01:13:14;13.65;;;6.10;;
10711;SDS011;5407;51.234;6.804;2022-08-19T01:15:43;7.43;;;5.70;;
10711;SDS011;5407;51.234;6.804;2022-08-19T01:18:15;8.48;;;5.80;;
10711;SDS011;5407;51.234;6.804;2022-08-19T01:20:44;8.57;;;7.00;;
10711;SDS011;5407;51.234;6.804;2022-08-19T01:23:13;7.35;;;5.65;;
10711;SDS011;5407;51.234;6.804;2022-08-19T01:25:41;5.90;;;5.30;;
10711;SDS011;5407;51.234;6.804;2022-08-19T01:28:14;8.93;;;5.53;;
10711;SDS011;5407;51.234;6.804;2022-08-19T01:30:44;7.15;;;5.25;;
10711;SDS011;5407;51.234;6.804;2022-08-19T01:33:11;8.15;;;5.57;;
10711;SDS011;5407;51.234;6.804;2022-08-19T01:35:39;8.63;;;5.22;;
10711;SDS011;5407;51.234;6.804;2022-08-19T01:38:08;10.82;;;5.82;;
10711;SDS011;5407;51.234;6.804;2022-08-19T01:40:38;9.50;;;5.97;;
10711;SDS011;5407;51.234;6.804;2022-08-19T01:43:07;6.80;;;5.80;;
10711;SDS011;5407;51.234;6.804;2022-08-19T01:45:35;5.75;;;5.13;;
10711;SDS011;5407;51.234;6.804;2022-08-19T01:48:03;9.65;;;6.00;;
10711;SDS011;5407;51.234;6.804;2022-08-19T01:50:30;7.97;;;5.82;;
10711;SDS011;5407;51.234;6.804;2022-08-19T01:52:59;6.30;;;4.20;;
10711;SDS011;5407;51.234;6.804;2022-08-19T01:55:26;7.90;;;5.13;;
10711;SDS011;5407;51.234;6.804;2022-08-19T01:57:56;7.10;;;4.75;;
10711;SDS011;5407;51.234;6.804;2022-08-19T02:00:26;6.60;;;6.00;;
10711;SDS011;5407;51.234;6.804;2022-08-19T02:02:56;8.40;;;4.93;;
10711;SDS011;5407;51.234;6.804;2022-08-19T02:05:22;5.32;;;4.70;;
10711;SDS011;5407;51.234;6.804;2022-08-19T02:07:50;8.38;;;5.00;;
10711;SDS011;5407;51.234;6.804;2022-08-19T02:10:18;8.35;;;5.38;;
10711;SDS011;5407;51.234;6.804;2022-08-19T02:12:47;8.75;;;6.25;;
10711;SDS011;5407;51.234;6.804;2022-08-19T02:15:17;9.43;;;5.40;;
10711;SDS011;5407;51.234;6.804;2022-08-19T02:17:45;8.23;;;5.70;;
10711;SDS011;5407;51.234;6.804;2022-08-19T02:20:13;8.13;;;5.80;;
10711;SDS011;5407;51.234;6.804;2022-08-19T02:22:41;7.88;;;5.53;;
10711;SDS011;5407;51.234;6.804;2022-08-19T02:25:08;5.68;;;5.07;;
10711;SDS011;5407;51.234;6.804;2022-08-19T02:27:36;6.80;;;5.95;;
10711;SDS011;5407;51.234;6.804;2022-08-19T02:30:04;7.13;;;5.13;;
10711;SDS011;5407;51.234;6.804;2022-08-19T02:32:34;7.95;;;5.80;;
10711;SDS011;5407;51.234;6.804;2022-08-19T02:35:01;7.82;;;5.40;;
10711;SDS011;5407;51.234;6.804;2022-08-19T02:37:29;7.50;;;5.72;;
10711;SDS011;5407;51.234;6.804;2022-08-19T02:40:13;6.90;;;5.68;;
10711;SDS011;5407;51.234;6.804;2022-08-19T02:42:42;7.10;;;5.80;;
10711;SDS011;5407;51.234;6.804;2022-08-19T02:45:10;7.00;;;5.35;;
10711;SDS011;5407;51.234;6.804;2022-08-19T02:47:39;12.32;;;5.07;;
10711;SDS011;5407;51.234;6.804;2022-08-19T02:50:06;6.25;;;4.80;;
10711;SDS011;5407;51.234;6.804;2022-08-19T02:52:34;6.72;;;6.05;;
10711;SDS011;5407;51.234;6.804;2022-08-19T02:55:02;7.53;;;6.47;;
10711;SDS011;5407;51.234;6.804;2022-08-19T02:57:31;11.00;;;7.60;;
10711;SDS011;5407;51.234;6.804;2022-08-19T02:59:59;6.38;;;5.78;;
10711;SDS011;5407;51.234;6.804;2022-08-19T03:02:26;7.03;;;6.28;;
10711;SDS011;5407;51.234;6.804;2022-08-19T03:04:55;7.78;;;6.00;;
10711;SDS011;5407;51.234;6.804;2022-08-19T03:07:21;8.05;;;6.35;;
10711;SDS011;5407;51.234;6.804;2022-08-19T03:09:48;7.57;;;6.07;;
10711;SDS011;5407;51.234;6.804;2022-08-19T03:12:15;7.22;;;5.88;;
10711;SDS011;5407;51.234;6.804;2022-08-19T03:14:42;6.57;;;5.85;;
10711;SDS011;5407;51.234;6.804;2022-08-19T03:17:11;7.57;;;5.50;;
10711;SDS011;5407;51.234;6.804;2022-08-19T03:19:38;7.53;;;5.45;;
10711;SDS011;5407;51.234;6.804;2022-08-19T03:22:07;6.47;;;5.88;;
10711;SDS011;5407;51.234;6.804;2022-08-19T03:24:34;8.25;;;5.85;;
10711;SDS011;5407;51.234;6.804;2022-08-19T03:27:01;7.85;;;6.93;;
10711;SDS011;5407;51.234;6.804;2022-08-19T03:29:30;7.20;;;6.55;;
10711;SDS011;5407;51.234;6.804;2022-08-19T03:31:57;10.73;;;7.88;;
10711;SDS011;5407;51.234;6.804;2022-08-19T03:34:26;14.77;;;12.82;;
10711;SDS011;5407;51.234;6.804;2022-08-19T03:36:55;17.85;;;14.75;;
10711;SDS011;5407;51.234;6.804;2022-08-19T03:39:27;14.25;;;12.85;;
10711;SDS011;5407;51.234;6.804;2022-08-19T03:41:54;13.45;;;12.15;;
10711;SDS011;5407;51.234;6.804;2022-08-19T03:44:25;15.40;;;13.75;;
10711;SDS011;5407;51.234;6.804;2022-08-19T03:46:54;16.33;;;14.63;;
10711;SDS011;5407;51.234;6.804;2022-08-19T03:49:23;23.10;;;15.27;;
10711;SDS011;5407;51.234;6.804;2022-08-19T03:51:52;25.83;;;16.27;;
10711;SDS011;5407;51.234;6.804;2022-08-19T03:54:20;21.95;;;19.85;;
10711;SDS011;5407;51.234;6.804;2022-08-19T03:56:51;20.83;;;18.73;;
10711;SDS011;5407;51.234;6.804;2022-08-19T03:59:21;18.25;;;16.35;;
10711;SDS011;5407;51.234;6.804;2022-08-19T04:01:51;17.60;;;16.05;;
10711;SDS011;5407;51.234;6.804;2022-08-19T04:04:19;19.42;;;17.50;;
10711;SDS011;5407;51.234;6.804;2022-08-19T04:06:47;20.77;;;17.60;;
10711;SDS011;5407;51.234;6.804;2022-08-19T04:09:15;21.48;;;16.75;;
10711;SDS011;5407;51.234;6.804;2022-08-19T04:11:45;22.52;;;17.20;;
10711;SDS011;5407;51.234;6.804;2022-08-19T04:14:16;18.60;;;16.70;;
10711;SDS011;5407;51.234;6.804;2022-08-19T04:16:45;17.92;;;16.15;;
10711;SDS011;5407;51.234;6.804;2022-08-19T04:19:13;17.98;;;16.08;;
10711;SDS011;5407;51.234;6.804;2022-08-19T04:21:42;22.00;;;18.65;;
10711;SDS011;5407;51.234;6.804;2022-08-19T04:24:10;21.98;;;19.38;;
10711;SDS011;5407;51.234;6.804;2022-08-19T04:26:38;18.20;;;15.98;;
10711;SDS011;5407;51.234;6.804;2022-08-19T04:29:06;19.80;;;17.85;;
10711;SDS011;5407;51.234;6.804;2022-08-19T04:31:38;20.13;;;18.00;;
10711;SDS011;5407;51.234;6.804;2022-08-19T04:34:07;20.42;;;18.25;;
10711;SDS011;5407;51.234;6.804;2022-08-19T04:36:38;19.52;;;17.63;;
10711;SDS011;5407;51.234;6.804;2022-08-19T04:39:07;18.85;;;17.02;;
10711;SDS011;5407;51.234;6.804;2022-08-19T04:41:35;21.40;;;19.20;;
10711;SDS011;5407;51.234;6.804;2022-08-19T04:44:32;20.50;;;17.42;;
10711;SDS011;5407;51.234;6.804;2022-08-19T04:47:02;20.92;;;16.15;;
10711;SDS011;5407;51.234;6.804;2022-08-19T04:49:31;14.27;;;12.00;;
10711;SDS011;5407;51.234;6.804;2022-08-19T04:51:58;12.10;;;10.15;;
10711;SDS011;5407;51.234;6.804;2022-08-19T04:54:25;9.60;;;8.70;;
10711;SDS011;5407;51.234;6.804;2022-08-19T04:56:52;12.10;;;9.02;;
10711;SDS011;5407;51.234;6.804;2022-08-19T04:59:19;11.80;;;8.25;;
10711;SDS011;5407;51.234;6.804;2022-08-19T05:01:47;9.68;;;8.13;;
10711;SDS011;5407;51.234;6.804;2022-08-19T05:04:17;12.32;;;9.07;;
10711;SDS011;5407;51.234;6.804;2022-08-19T05:06:46;13.05;;;8.45;;
10711;SDS011;5407;51.234;6.804;2022-08-19T05:09:14;10.63;;;8.18;;
10711;SDS011;5407;51.234;6.804;2022-08-19T05:11:42;11.70;;;8.45;;
10711;SDS011;5407;51.234;6.804;2022-08-19T05:14:10;16.23;;;14.30;;
10711;SDS011;5407;51.234;6.804;2022-08-19T05:16:38;22.10;;;15.10;;
10711;SDS011;5407;51.234;6.804;2022-08-19T05:19:06;19.98;;;18.15;;
10711;SDS011;5407;51.234;6.804;2022-08-19T05:21:51;25.92;;;23.48;;
10711;SDS011;5407;51.234;6.804;2022-08-19T05:24:36;28.17;;;24.58;;
10711;SDS011;5407;51.234;6.804;2022-08-19T05:27:03;29.73;;;26.63;;
10711;SDS011;5407;51.234;6.804;2022-08-19T05:29:31;29.65;;;26.55;;
10711;SDS011;5407;51.234;6.804;2022-08-19T05:31:59;28.60;;;25.63;;
10711;SDS011;5407;51.234;6.804;2022-08-19T05:34:26;28.83;;;25.80;;
10711;SDS011;5407;51.234;6.804;2022-08-19T05:36:56;26.30;;;22.38;;
10711;SDS011;5407;51.234;6.804;2022-08-19T05:39:25;29.95;;;26.85;;
10711;SDS011;5407;51.234;6.804;2022-08-19T05:41:55;29.58;;;26.17;;
10711;SDS011;5407;51.234;6.804;2022-08-19T05:44:24;37.50;;;28.17;;
10711;SDS011;5407;51.234;6.804;2022-08-19T05:46:52;36.85;;;30.85;;
10711;SDS011;5407;51.234;6.804;2022-08-19T05:49:20;32.22;;;27.50;;
10711;SDS011;5407;51.234;6.804;2022-08-19T05:51:48;37.20;;;29.30;;
10711;SDS011;5407;51.234;6.804;2022-08-19T05:54:17;36.03;;;29.17;;
10711;SDS011;5407;51.234;6.804;2022-08-19T05:56:44;37.45;;;31.27;;
10711;SDS011;5407;51.234;6.804;2022-08-19T05:59:13;34.63;;;31.02;;
10711;SDS011;5407;51.234;6.804;2022-08-19T06:01:42;38.45;;;27.08;;
10711;SDS011;5407;51.234;6.804;2022-08-19T06:04:11;35.00;;;28.83;;
10711;SDS011;5407;51.234;6.804;2022-08-19T06:06:39;36.75;;;31.95;;
10711;SDS011;5407;51.234;6.804;2022-08-19T06:09:07;34.83;;;28.48;;
10711;SDS011;5407;51.234;6.804;2022-08-19T06:11:38;32.47;;;28.77;;
10711;SDS011;5407;51.234;6.804;2022-08-19T06:14:10;33.63;;;29.85;;
10711;SDS011;5407;51.234;6.804;2022-08-19T06:16:39;33.95;;;30.45;;
10711;SDS011;5407;51.234;6.804;2022-08-19T06:19:07;34.95;;;28.88;;
10711;SDS011;5407;51.234;6.804;2022-08-19T06:21:36;32.22;;;28.95;;
10711;SDS011;5407;51.234;6.804;2022-08-19T06:24:06;32.35;;;28.92;;
10711;SDS011;5407;51.234;6.804;2022-08-19T06:26:35;32.30;;;28.20;;
10711;SDS011;5407;51.234;6.804;2022-08-19T06:29:05;38.25;;;30.35;;
10711;SDS011;5407;51.234;6.804;2022-08-19T06:31:34;34.45;;;27.52;;
10711;SDS011;5407;51.234;6.804;2022-08-19T06:34:02;29.92;;;26.75;;
10711;SDS011;5407;51.234;6.804;2022-08-19T06:36:32;32.83;;;28.67;;
10711;SDS011;5407;51.234;6.804;2022-08-19T06:39:02;33.20;;;29.80;;
10711;SDS011;5407;51.234;6.804;2022-08-19T06:41:30;32.38;;;27.25;;
10711;SDS011;5407;51.234;6.804;2022-08-19T06:44:02;33.28;;;27.65;;
10711;SDS011;5407;51.234;6.804;2022-08-19T06:46:29;32.03;;;27.30;;
10711;SDS011;5407;51.234;6.804;2022-08-19T06:48:57;32.05;;;28.75;;
10711;SDS011;5407;51.234;6.804;2022-08-19T06:51:25;29.13;;;26.00;;
10711;SDS011;5407;51.234;6.804;2022-08-19T06:53:54;29.08;;;26.02;;
10711;SDS011;5407;51.234;6.804;2022-08-19T06:56:22;30.83;;;27.50;;
10711;SDS011;5407;51.234;6.804;2022-08-19T06:58:56;33.53;;;29.08;;
10711;SDS011;5407;51.234;6.804;2022-08-19T07:01:24;33.70;;;27.60;;
10711;SDS011;5407;51.234;6.804;2022-08-19T07:03:51;32.58;;;28.08;;
10711;SDS011;5407;51.234;6.804;2022-08-19T07:06:18;31.05;;;27.63;;
10711;SDS011;5407;51.234;6.804;2022-08-19T07:08:46;36.25;;;30.25;;
10711;SDS011;5407;51.234;6.804;2022-08-19T07:11:14;30.85;;;27.63;;
10711;SDS011;5407;51.234;6.804;2022-08-19T07:13:43;36.63;;;30.63;;
10711;SDS011;5407;51.234;6.804;2022-08-19T07:16:14;32.75;;;29.23;;
10711;SDS011;5407;51.234;6.804;2022-08-19T07:18:45;39.80;;;30.35;;
10711;SDS011;5407;51.234;6.804;2022-08-19T07:21:14;35.08;;;29.90;;
10711;SDS011;5407;51.234;6.804;2022-08-19T07:23:42;35.28;;;28.20;;
10711;SDS011;5407;51.234;6.804;2022-08-19T07:26:11;31.98;;;27.35;;
10711;SDS011;5407;51.234;6.804;2022-08-19T07:28:39;32.00;;;28.55;;
10711;SDS011;5407;51.234;6.804;2022-08-19T07:31:09;35.10;;;30.92;;
10711;SDS011;5407;51.234;6.804;2022-08-19T07:33:37;26.13;;;23.42;;
10711;SDS011;5407;51.234;6.804;2022-08-19T07:36:07;26.23;;;23.42;;
10711;SDS011;5407;51.234;6.804;2022-08-19T07:38:36;28.38;;;25.45;;
10711;SDS011;5407;51.234;6.804;2022-08-19T07:41:04;24.10;;;21.70;;
10711;SDS011;5407;51.234;6.804;2022-08-19T07:43:31;37.47;;;25.15;;
10711;SDS011;5407;51.234;6.804;2022-08-19T07:45:58;29.77;;;21.98;;
10711;SDS011;5407;51.234;6.804;2022-08-19T07:48:26;27.02;;;19.50;;
10711;SDS011;5407;51.234;6.804;2022-08-19T07:50:55;23.23;;;19.00;;
10711;SDS011;5407;51.234;6.804;2022-08-19T07:53:27;22.65;;;20.17;;
10711;SDS011;5407;51.234;6.804;2022-08-19T07:55:55;24.67;;;21.90;;
10711;SDS011;5407;51.234;6.804;2022-08-19T07:58:27;18.35;;;16.10;;
10711;SDS011;5407;51.234;6.804;2022-08-19T08:00:54;18.30;;;15.90;;
10711;SDS011;5407;51.234;6.804;2022-08-19T08:03:21;20.27;;;15.52;;
10711;SDS011;5407;51.234;6.804;2022-08-19T08:06:09;14.50;;;12.98;;
10711;SDS011;5407;51.234;6.804;2022-08-19T08:08:56;16.40;;;13.93;;
10711;SDS011;5407;51.234;6.804;2022-08-19T08:11:44;23.08;;;14.20;;
10711;SDS011;5407;51.234;6.804;2022-08-19T08:14:14;19.83;;;15.45;;
10711;SDS011;5407;51.234;6.804;2022-08-19T08:16:42;19.75;;;17.33;;
10711;SDS011;5407;51.234;6.804;2022-08-19T08:19:10;21.67;;;19.23;;
10711;SDS011;5407;51.234;6.804;2022-08-19T08:21:40;24.50;;;21.90;;
10711;SDS011;5407;51.234;6.804;2022-08-19T08:24:09;29.48;;;23.08;;
10711;SDS011;5407;51.234;6.804;2022-08-19T08:26:38;31.52;;;26.70;;
10711;SDS011;5407;51.234;6.804;2022-08-19T08:29:06;43.75;;;32.90;;
10711;SDS011;5407;51.234;6.804;2022-08-19T08:31:36;53.20;;;42.78;;
10711;SDS011;5407;51.234;6.804;2022-08-19T08:34:04;42.50;;;33.88;;
10711;SDS011;5407;51.234;6.804;2022-08-19T08:36:31;47.67;;;29.42;;
10711;SDS011;5407;51.234;6.804;2022-08-19T08:39:00;56.90;;;32.15;;
10711;SDS011;5407;51.234;6.804;2022-08-19T08:41:31;42.20;;;32.17;;
10711;SDS011;5407;51.234;6.804;2022-08-19T08:44:11;48.63;;;32.90;;
10711;SDS011;5407;51.234;6.804;2022-08-19T08:46:45;113.28;;;36.08;;
10711;SDS011;5407;51.234;6.804;2022-08-19T08:49:20;42.00;;;29.40;;
10711;SDS011;5407;51.234;6.804;2022-08-19T08:51:58;37.30;;;26.50;;
10711;SDS011;5407;51.234;6.804;2022-08-19T08:54:30;35.45;;;28.92;;
10711;SDS011;5407;51.234;6.804;2022-08-19T08:57:07;34.83;;;27.55;;
10711;SDS011;5407;51.234;6.804;2022-08-19T08:59:39;79.50;;;30.25;;
10711;SDS011;5407;51.234;6.804;2022-08-19T09:02:08;36.97;;;27.23;;
10711;SDS011;5407;51.234;6.804;2022-08-19T09:04:35;36.00;;;24.77;;
10711;SDS011;5407;51.234;6.804;2022-08-19T09:07:09;31.67;;;24.05;;
10711;SDS011;5407;51.234;6.804;2022-08-19T09:09:46;36.47;;;27.60;;
10711;SDS011;5407;51.234;6.804;2022-08-19T09:12:19;34.88;;;26.77;;
10711;SDS011;5407;51.234;6.804;2022-08-19T09:14:53;31.20;;;25.35;;
10711;SDS011;5407;51.234;6.804;2022-08-19T09:17:24;34.63;;;24.05;;
10711;SDS011;5407;51.234;6.804;2022-08-19T09:19:56;28.15;;;22.60;;
10711;SDS011;5407;51.234;6.804;2022-08-19T09:22:26;26.67;;;22.35;;
10711;SDS011;5407;51.234;6.804;2022-08-19T09:24:53;26.73;;;21.67;;
10711;SDS011;5407;51.234;6.804;2022-08-19T09:27:22;23.40;;;20.42;;
10711;SDS011;5407;51.234;6.804;2022-08-19T09:29:51;22.80;;;17.95;;
10711;SDS011;5407;51.234;6.804;2022-08-19T09:32:20;21.63;;;17.75;;
10711;SDS011;5407;51.234;6.804;2022-08-19T09:34:49;19.55;;;16.65;;
10711;SDS011;5407;51.234;6.804;2022-08-19T09:37:20;22.40;;;18.15;;
10711;SDS011;5407;51.234;6.804;2022-08-19T09:39:48;20.80;;;15.30;;
10711;SDS011;5407;51.234;6.804;2022-08-19T09:42:17;21.58;;;16.40;;
10711;SDS011;5407;51.234;6.804;2022-08-19T09:44:45;23.80;;;16.70;;
10711;SDS011;5407;51.234;6.804;2022-08-19T09:47:13;19.80;;;14.93;;
10711;SDS011;5407;51.234;6.804;2022-08-19T09:49:40;21.05;;;17.58;;
10711;SDS011;5407;51.234;6.804;2022-08-19T09:52:08;23.55;;;18.50;;
10711;SDS011;5407;51.234;6.804;2022-08-19T09:54:36;23.35;;;18.48;;
10711;SDS011;5407;51.234;6.804;2022-08-19T09:57:03;23.88;;;18.50;;
10711;SDS011;5407;51.234;6.804;2022-08-19T09:59:30;22.20;;;19.13;;
10711;SDS011;5407;51.234;6.804;2022-08-19T10:01:59;21.70;;;18.85;;
10711;SDS011;5407;51.234;6.804;2022-08-19T10:04:25;22.08;;;19.30;;
10711;SDS011;5407;51.234;6.804;2022-08-19T10:07:13;20.90;;;18.67;;
10711;SDS011;5407;51.234;6.804;2022-08-19T10:09:40;26.98;;;21.48;;
10711;SDS011;5407;51.234;6.804;2022-08-19T10:12:08;26.95;;;20.40;;
10711;SDS011;5407;51.234;6.804;2022-08-19T10:14:35;22.30;;;19.90;;
10711;SDS011;5407;51.234;6.804;2022-08-19T10:17:04;18.67;;;16.77;;
10711;SDS011;5407;51.234;6.804;2022-08-19T10:19:31;20.02;;;17.95;;
10711;SDS011;5407;51.234;6.804;2022-08-19T10:22:04;28.98;;;17.17;;
10711;SDS011;5407;51.234;6.804;2022-08-19T10:24:32;18.10;;;16.15;;
10711;SDS011;5407;51.234;6.804;2022-08-19T10:26:59;22.40;;;15.77;;
10711;SDS011;5407;51.234;6.804;2022-08-19T10:29:28;20.27;;;14.60;;
10711;SDS011;5407;51.234;6.804;2022-08-19T10:31:57;17.30;;;15.30;;
10711;SDS011;5407;51.234;6.804;2022-08-19T10:34:26;21.63;;;16.27;;
10711;SDS011;5407;51.234;6.804;2022-08-19T10:36:55;23.38;;;16.30;;
10711;SDS011;5407;51.234;6.804;2022-08-19T10:39:22;20.50;;;14.15;;
10711;SDS011;5407;51.234;6.804;2022-08-19T10:41:49;18.80;;;16.58;;
10711;SDS011;5407;51.234;6.804;2022-08-19T10:44:16;17.88;;;15.75;;
10711;SDS011;5407;51.234;6.804;2022-08-19T10:46:43;19.65;;;14.20;;
10711;SDS011;5407;51.234;6.804;2022-08-19T10:49:12;21.65;;;14.80;;
10711;SDS011;5407;51.234;6.804;2022-08-19T10:51:41;17.33;;;11.80;;
10711;SDS011;5407;51.234;6.804;2022-08-19T10:54:25;18.33;;;11.45;;
10711;SDS011;5407;51.234;6.804;2022-08-19T10:57:13;12.52;;;11.18;;
10711;SDS011;5407;51.234;6.804;2022-08-19T10:59:39;13.05;;;10.82;;
10711;SDS011;5407;51.234;6.804;2022-08-19T11:02:07;13.75;;;12.18;;
10711;SDS011;5407;51.234;6.804;2022-08-19T11:04:35;12.57;;;10.10;;
10711;SDS011;5407;51.234;6.804;2022-08-19T11:07:04;13.52;;;10.75;;
10711;SDS011;5407;51.234;6.804;2022-08-19T11:09:36;11.65;;;8.10;;
10711;SDS011;5407;51.234;6.804;2022-08-19T11:12:05;10.38;;;7.35;;
10711;SDS011;5407;51.234;6.804;2022-08-19T11:14:33;8.88;;;7.25;;
10711;SDS011;5407;51.234;6.804;2022-08-19T11:17:00;7.85;;;6.13;;
10711;SDS011;5407;51.234;6.804;2022-08-19T11:19:28;10.27;;;7.45;;
10711;SDS011;5407;51.234;6.804;2022-08-19T11:21:55;8.65;;;6.35;;
10711;SDS011;5407;51.234;6.804;2022-08-19T11:24:24;7.10;;;6.40;;
10711;SDS011;5407;51.234;6.804;2022-08-19T11:26:53;7.47;;;6.70;;
10711;SDS011;5407;51.234;6.804;2022-08-19T11:29:24;8.95;;;8.15;;
10711;SDS011;5407;51.234;6.804;2022-08-19T11:31:53;8.02;;;7.22;;
10711;SDS011;5407;51.234;6.804;2022-08-19T11:34:21;7.95;;;7.15;;
10711;SDS011;5407;51.234;6.804;2022-08-19T11:36:50;10.45;;;7.60;;
10711;SDS011;5407;51.234;6.804;2022-08-19T11:39:19;10.27;;;6.85;;
10711;SDS011;5407;51.234;6.804;2022-08-19T11:41:48;8.95;;;6.25;;
10711;SDS011;5407;51.234;6.804;2022-08-19T11:44:15;11.48;;;6.10;;
10711;SDS011;5407;51.234;6.804;2022-08-19T11:46:43;7.28;;;6.43;;
10711;SDS011;5407;51.234;6.804;2022-08-19T11:49:12;9.48;;;5.53;;
10711;SDS011;5407;51.234;6.804;2022-08-19T11:51:40;6.95;;;6.22;;
10711;SDS011;5407;51.234;6.804;2022-08-19T11:54:08;7.10;;;5.53;;
10711;SDS011;5407;51.234;6.804;2022-08-19T11:56:36;6.18;;;5.57;;
10711;SDS011;5407;51.234;6.804;2022-08-19T11:59:05;7.60;;;6.90;;
10711;SDS011;5407;51.234;6.804;2022-08-19T12:01:33;12.77;;;9.23;;
10711;SDS011;5407;51.234;6.804;2022-08-19T12:04:00;8.50;;;6.78;;
10711;SDS011;5407;51.234;6.804;2022-08-19T12:06:30;8.65;;;6.13;;
10711;SDS011;5407;51.234;6.804;2022-08-19T12:09:00;8.77;;;6.15;;
10711;SDS011;5407;51.234;6.804;2022-08-19T12:11:29;8.45;;;6.15;;
10711;SDS011;5407;51.234;6.804;2022-08-19T12:13:55;7.22;;;5.60;;
10711;SDS011;5407;51.234;6.804;2022-08-19T12:16:25;8.57;;;5.72;;
10711;SDS011;5407;51.234;6.804;2022-08-19T12:18:54;8.25;;;5.45;;
10711;SDS011;5407;51.234;6.804;2022-08-19T12:21:22;6.43;;;5.50;;
10711;SDS011;5407;51.234;6.804;2022-08-19T12:23:52;12.95;;;5.55;;
10711;SDS011;5407;51.234;6.804;2022-08-19T12:26:20;8.65;;;6.10;;
10711;SDS011;5407;51.234;6.804;2022-08-19T12:28:47;7.82;;;6.07;;
10711;SDS011;5407;51.234;6.804;2022-08-19T12:31:14;8.57;;;5.20;;
10711;SDS011;5407;51.234;6.804;2022-08-19T12:33:43;8.98;;;5.60;;
10711;SDS011;5407;51.234;6.804;2022-08-19T12:36:11;5.68;;;4.88;;
10711;SDS011;5407;51.234;6.804;2022-08-19T12:38:39;6.85;;;5.70;;
10711;SDS011;5407;51.234;6.804;2022-08-19T12:41:09;9.13;;;5.88;;
10711;SDS011;5407;51.234;6.804;2022-08-19T12:43:37;5.65;;;4.90;;
10711;SDS011;5407;51.234;6.804;2022-08-19T12:46:05;5.90;;;5.28;;
10711;SDS011;5407;51.234;6.804;2022-08-19T12:48:32;5.22;;;4.72;;
10711;SDS011;5407;51.234;6.804;2022-08-19T12:51:05;5.38;;;4.88;;
10711;SDS011;5407;51.234;6.804;2022-08-19T12:53:34;5.38;;;4.90;;
10711;SDS011;5407;51.234;6.804;2022-08-19T12:56:01;4.65;;;4.25;;
10711;SDS011;5407;51.234;6.804;2022-08-19T12:58:29;4.70;;;4.30;;
10711;SDS011;5407;51.234;6.804;2022-08-19T13:00:59;4.95;;;4.45;;
10711;SDS011;5407;51.234;6.804;2022-08-19T13:03:31;4.72;;;4.32;;
10711;SDS011;5407;51.234;6.804;2022-08-19T13:05:58;4.90;;;4.47;;
10711;SDS011;5407;51.234;6.804;2022-08-19T13:08:27;5.22;;;4.28;;
10711;SDS011;5407;51.234;6.804;2022-08-19T13:10:53;4.63;;;4.25;;
10711;SDS011;5407;51.234;6.804;2022-08-19T13:13:20;4.95;;;4.40;;
10711;SDS011;5407;51.234;6.804;2022-08-19T13:15:47;4.47;;;4.07;;
10711;SDS011;5407;51.234;6.804;2022-08-19T13:18:14;4.22;;;3.92;;
10711;SDS011;5407;51.234;6.804;2022-08-19T13:20:42;4.57;;;4.00;;
10711;SDS011;5407;51.234;6.804;2022-08-19T13:23:09;5.65;;;4.05;;
10711;SDS011;5407;51.234;6.804;2022-08-19T13:25:37;4.68;;;3.75;;
10711;SDS011;5407;51.234;6.804;2022-08-19T13:28:04;4.13;;;3.72;;
10711;SDS011;5407;51.234;6.804;2022-08-19T13:30:32;5.95;;;4.63;;
10711;SDS011;5407;51.234;6.804;2022-08-19T13:33:16;4.45;;;4.03;;
10711;SDS011;5407;51.234;6.804;2022-08-19T13:35:46;4.32;;;3.70;;
10711;SDS011;5407;51.234;6.804;2022-08-19T13:38:14;4.95;;;3.78;;
10711;SDS011;5407;51.234;6.804;2022-08-19T13:40:45;15.30;;;3.88;;
10711;SDS011;5407;51.234;6.804;2022-08-19T13:43:12;4.40;;;3.88;;
10711;SDS011;5407;51.234;6.804;2022-08-19T13:45:40;4.40;;;3.75;;
10711;SDS011;5407;51.234;6.804;2022-08-19T13:48:07;3.53;;;3.22;;
10711;SDS011;5407;51.234;6.804;2022-08-19T13:50:35;3.90;;;3.60;;
10711;SDS011;5407;51.234;6.804;2022-08-19T13:53:07;3.78;;;3.30;;
10711;SDS011;5407;51.234;6.804;2022-08-19T13:55:36;3.95;;;3.58;;
10711;SDS011;5407;51.234;6.804;2022-08-19T13:58:05;3.55;;;3.15;;
10711;SDS011;5407;51.234;6.804;2022-08-19T14:00:33;3.75;;;3.17;;
10711;SDS011;5407;51.234;6.804;2022-08-19T14:03:02;3.65;;;3.20;;
10711;SDS011;5407;51.234;6.804;2022-08-19T14:05:31;3.53;;;3.22;;
10711;SDS011;5407;51.234;6.804;2022-08-19T14:07:58;3.60;;;3.10;;
10711;SDS011;5407;51.234;6.804;2022-08-19T14:10:26;3.38;;;3.08;;
10711;SDS011;5407;51.234;6.804;2022-08-19T14:12:56;3.42;;;3.13;;
10711;SDS011;5407;51.234;6.804;2022-08-19T14:15:26;4.93;;;2.97;;
10711;SDS011;5407;51.234;6.804;2022-08-19T14:17:54;3.38;;;3.08;;
10711;SDS011;5407;51.234;6.804;2022-08-19T14:20:21;3.97;;;3.00;;
10711;SDS011;5407;51.234;6.804;2022-08-19T14:22:48;3.05;;;2.80;;
10711;SDS011;5407;51.234;6.804;2022-08-19T14:25:16;3.58;;;2.80;;
10711;SDS011;5407;51.234;6.804;2022-08-19T14:27:45;2.95;;;2.65;;
10711;SDS011;5407;51.234;6.804;2022-08-19T14:30:15;3.22;;;2.92;;
10711;SDS011;5407;51.234;6.804;2022-08-19T14:32:44;3.20;;;2.90;;
10711;SDS011;5407;51.234;6.804;2022-08-19T14:35:13;5.05;;;2.63;;
10711;SDS011;5407;51.234;6.804;2022-08-19T14:37:41;3.10;;;2.80;;
10711;SDS011;5407;51.234;6.804;2022-08-19T14:40:10;6.75;;;2.60;;
10711;SDS011;5407;51.234;6.804;2022-08-19T14:42:38;2.58;;;2.38;;
10711;SDS011;5407;51.234;6.804;2022-08-19T14:45:05;5.35;;;2.63;;
10711;SDS011;5407;51.234;6.804;2022-08-19T14:47:33;5.65;;;3.00;;
10711;SDS011;5407;51.234;6.804;2022-08-19T14:50:01;4.30;;;2.83;;
10711;SDS011;5407;51.234;6.804;2022-08-19T14:52:28;3.72;;;2.40;;
10711;SDS011;5407;51.234;6.804;2022-08-19T14:54:55;26.92;;;4.03;;
10711;SDS011;5407;51.234;6.804;2022-08-19T14:57:22;6.78;;;2.78;;